メインページ
METAR-TAF:

METAR-TAF

空港 :

スタンリー, フォークランド諸島

マウント・プレザント空軍基地

緯度: 51-49S, 経度: 058-27W, 海抜: 74m

現時点の気象観測

当レポートは36分前の20:50(UTC)に作成
南/南西の風 16kt
気温 3°C
湿度 52%
気圧 1008 hPa
視程10km以上
1,500メートル以下は雲なし、積乱雲なし

METAR: EGYP 202050Z 21016KT CAVOK 03/M06 Q1008 BLU TEMPO 3000 SHGS BKN012 YL01

時間: 18:26 (21:26 UTC)

予報

当レポートは2時間1分前の19:25(UTC)に作成
予報は20日の 21時(UTC)から 21日の 15時(UTC)まで有効
南西の風 18kt、最大28ktの突風を伴う
視程10km以上
高度3000ftの雲は散在している
確率 30% :
20日の 21時(UTC)から 21日の 07時(UTC)まで一時的に
視程: 2500m
高度500ftの雲は散在している
弱いにわか雪
21日の 07時(UTC)から 21日の 10時(UTC)まで徐々に
西の風 18kt
確率 30% :
21日の 07時(UTC)から 21日の 15時(UTC)まで一時的に
視程: 4000m
高度1000ftの雲は散在している
(弱い) にわか雨, 氷霰/雪霰

TAF: EGYP 201925Z 2021/2115 22018G28KT 9999 SCT030 PROB30 TEMPO 2021/2107 2500 -SHSN SCT005 BECMG 2107/2110 26018KT PROB30 TEMPO 2107/2115 4000 -SHGS SCT010

4,000以上の空港の気象観測と天気予報(METAR報とTAF報)

利用可能な観測所は地図上に黄色い丸と赤い丸で示す。

丸の上にカーソルを重ねると観測所名を参照できる。

次にクリックすると気象観測と天気予報を参照できる。

マップの切り替え:黒色「×」印の緑ボタンをクリックして拡大、「-」印の緑ボタンをクリックして縮小、緑色の三角印をクリックして隣りの地図に切り替え


METAR-TAF: